Time;durP1;ratioP1;P1;durP2;ratioP2;P2;SDS_P1;SDS_P2;PMS_P1;PMS_P2;Temp;Humidity;BMP_temperature;BMP_pressure;BME280_temperature;BME280_humidity;BME280_pressure;Samples;Min_cycle;Max_cycle;Signal;HPM_P1;HPM_P2
2022/10/16 00:01:41;;;;;;;1.95;1.65;;;;;;;14.53;88.23;100616.13;7394995;19;20018;-66
2022/10/16 00:04:11;;;;;;;2.35;1.70;;;;;;;14.51;88.28;100613.53;7396359;19;20014;-68
2022/10/16 00:06:42;;;;;;;1.77;1.48;;;;;;;14.49;88.41;100625.94;7396725;19;20007;-67
2022/10/16 00:09:11;;;;;;;2.72;1.85;;;;;;;14.46;88.61;100631.34;7395139;19;20022;-66
2022/10/16 00:11:41;;;;;;;2.00;1.75;;;;;;;14.44;88.83;100635.81;7394743;19;20047;-67
2022/10/16 00:14:12;;;;;;;1.63;1.52;;;;;;;14.41;88.70;100636.81;7396435;19;20392;-67
2022/10/16 00:16:41;;;;;;;1.75;1.60;;;;;;;14.41;88.99;100630.69;7396718;19;20361;-66
2022/10/16 00:19:10;;;;;;;4.20;2.00;;;;;;;14.40;89.05;100624.53;7396210;19;20020;-66
2022/10/16 00:21:38;;;;;;;2.70;1.90;;;;;;;14.40;89.13;100629.81;7394612;19;20044;-66
2022/10/16 00:24:11;;;;;;;2.50;1.58;;;;;;;14.40;89.21;100624.53;7395767;19;20484;-66
2022/10/16 00:26:41;;;;;;;2.03;1.70;;;;;;;14.39;88.93;100637.78;7396416;19;20015;-67
2022/10/16 00:29:10;;;;;;;3.85;1.60;;;;;;;14.39;88.96;100638.63;7395776;19;20019;-66
2022/10/16 00:31:39;;;;;;;3.15;1.70;;;;;;;14.39;89.35;100640.41;7394160;19;20077;-66
2022/10/16 00:34:07;;;;;;;1.85;1.70;;;;;;;14.37;89.14;100643.13;7394091;19;20014;-65
2022/10/16 00:36:36;;;;;;;2.40;1.70;;;;;;;14.38;89.13;100643.97;7393582;19;20014;-66
2022/10/16 00:39:05;;;;;;;2.08;1.88;;;;;;;14.37;89.08;100639.63;7395679;19;20017;-67
2022/10/16 00:41:36;;;;;;;3.60;1.70;;;;;;;14.35;89.10;100642.31;7393003;19;20493;-65
2022/10/16 00:44:26;;;;;;;1.73;1.60;;;;;;;14.33;89.25;100641.50;7395983;19;20564;-66
2022/10/16 00:46:57;;;;;;;1.70;1.60;;;;;;;14.30;89.23;100646.91;7393302;19;20015;-66
2022/10/16 00:49:26;;;;;;;3.58;1.63;;;;;;;14.28;89.65;100654.03;7393123;19;20014;-67
2022/10/16 00:51:56;;;;;;;3.92;1.60;;;;;;;14.26;89.49;100645.31;7394969;19;20032;-66
2022/10/16 00:54:27;;;;;;;2.38;1.75;;;;;;;14.23;89.44;100645.44;7393476;19;20359;-65
2022/10/16 00:56:57;;;;;;;3.10;1.63;;;;;;;14.23;89.76;100650.69;7394820;19;20421;-67
2022/10/16 00:59:29;;;;;;;1.98;1.63;;;;;;;14.22;89.56;100649.00;7394896;19;20086;-65
2022/10/16 01:02:02;;;;;;;2.92;1.60;;;;;;;14.22;89.30;100649.00;7395335;19;20031;-66
2022/10/16 01:04:36;;;;;;;1.92;1.52;;;;;;;14.20;89.82;100648.19;7398939;19;20022;-66
2022/10/16 01:07:09;;;;;;;;;;;;;;;14.20;90.33;100658.75;7403989;19;20022;-65
2022/10/16 01:09:47;;;;;;;2.05;1.70;;;;;;;14.17;89.72;100660.56;7400757;19;19978;-66
2022/10/16 01:12:21;;;;;;;2.13;1.75;;;;;;;14.16;89.89;100658.84;7402839;19;20082;-65
2022/10/16 01:14:55;;;;;;;2.00;1.58;;;;;;;14.17;89.83;100665.00;7403573;19;20022;-67
2022/10/16 01:17:30;;;;;;;;;;;;;;;14.16;90.52;100666.75;7403679;19;20082;-66
2022/10/16 01:20:17;;;;;;;4.95;1.65;;;;;;;14.17;89.82;100665.84;7400791;19;20321;-67
2022/10/16 01:23:09;;;;;;;2.85;1.60;;;;;;;14.17;89.84;100665.00;7402407;19;20026;-66
2022/10/16 01:25:51;;;;;;;1.70;1.50;;;;;;;14.17;89.84;100672.91;7401580;19;20035;-65
2022/10/16 01:28:28;;;;;;;2.38;1.50;;;;;;;14.15;90.16;100673.00;7399488;19;20026;-69
2022/10/16 01:31:00;;;;;;;1.88;1.65;;;;;;;14.16;90.13;100673.84;7399134;19;20035;-67
2022/10/16 01:33:35;;;;;;;2.72;1.67;;;;;;;14.14;90.36;100670.38;7401933;19;20085;-68
2022/10/16 01:36:13;;;;;;;2.35;1.67;;;;;;;14.13;90.44;100672.19;7401385;19;20433;-68
2022/10/16 01:38:43;;;;;;;1.65;1.50;;;;;;;14.12;90.18;100682.78;7399135;19;20090;-66
2022/10/16 01:41:14;;;;;;;1.73;1.63;;;;;;;14.11;90.45;100681.06;7398873;19;20018;-66
2022/10/16 01:43:49;;;;;;;1.85;1.60;;;;;;;14.11;90.72;100686.34;7401104;19;20090;-66
2022/10/16 01:46:22;;;;;;;5.88;1.75;;;;;;;14.08;90.49;100689.94;7400892;19;20018;-67
2022/10/16 01:48:53;;;;;;;1.40;1.30;;;;;;;14.07;90.64;100693.50;7400860;19;20014;-67
2022/10/16 01:51:23;;;;;;;2.70;1.80;;;;;;;14.07;90.67;100696.13;7398972;19;20536;-68
2022/10/16 01:53:55;;;;;;;1.75;1.63;;;;;;;14.07;90.60;100690.88;7401183;19;20078;-68
2022/10/16 01:56:27;;;;;;;1.88;1.40;;;;;;;14.08;90.80;100691.72;7400689;19;20517;-68
2022/10/16 01:59:03;;;;;;;2.13;1.60;;;;;;;14.07;90.73;100698.78;7398677;19;20078;-68
2022/10/16 02:01:35;;;;;;;3.80;1.70;;;;;;;14.08;90.79;100691.72;7398519;19;20014;-68
2022/10/16 02:04:10;;;;;;;2.80;1.48;;;;;;;14.08;90.58;100703.16;7401199;19;20073;-67
2022/10/16 02:06:38;;;;;;;2.55;1.58;;;;;;;14.03;90.80;100691.91;7398498;19;20074;-70
2022/10/16 02:09:07;;;;;;;5.13;1.70;;;;;;;14.09;90.70;100698.72;7400030;19;20070;-67
2022/10/16 02:11:36;;;;;;;2.00;1.42;;;;;;;14.09;90.69;100698.72;7397721;19;20077;-68
2022/10/16 02:14:09;;;;;;;1.80;1.45;;;;;;;14.10;90.94;100706.59;7400145;19;20017;-66
2022/10/16 02:16:39;;;;;;;2.83;1.60;;;;;;;14.10;90.75;100711.88;7398644;19;20414;-67
2022/10/16 02:19:09;;;;;;;1.38;1.27;;;;;;;14.10;90.79;100701.31;7400722;19;20071;-67
2022/10/16 02:21:45;;;;;;;2.35;1.60;;;;;;;14.10;90.81;100711.88;7397301;19;20432;-68
2022/10/16 02:24:20;;;;;;;2.35;1.65;;;;;;;14.09;90.45;100699.59;7398316;19;20074;-67
2022/10/16 02:26:55;;;;;;;2.30;1.50;;;;;;;14.08;90.98;100703.16;7397113;19;20070;-67
2022/10/16 02:29:28;;;;;;;2.38;1.80;;;;;;;14.06;90.58;100712.88;7399031;19;20010;-68
2022/10/16 02:32:01;;;;;;;1.63;1.40;;;;;;;14.03;90.56;100718.28;7400112;19;20022;-67
2022/10/16 02:34:34;;;;;;;1.60;1.50;;;;;;;14.00;90.82;100715.75;7400268;19;20091;-67
2022/10/16 02:37:06;;;;;;;2.67;1.63;;;;;;;13.97;90.59;100710.59;7400029;19;20447;-68
2022/10/16 02:39:36;;;;;;;2.30;2.05;;;;;;;13.93;90.76;100714.25;7398840;19;20023;-66
2022/10/16 02:42:18;;;;;;;1.63;1.52;;;;;;;13.89;90.90;100712.63;7394827;19;20070;-67
2022/10/16 02:44:49;;;;;;;1.73;1.60;;;;;;;13.84;90.94;100712.81;7399084;19;20015;-67
2022/10/16 02:47:18;;;;;;;1.85;1.40;;;;;;;13.81;90.77;100716.44;7399660;19;20066;-67
2022/10/16 02:49:46;;;;;;;2.40;1.90;;;;;;;13.77;90.99;100712.16;7398275;19;20082;-67
2022/10/16 02:52:15;;;;;;;2.78;1.55;;;;;;;13.73;90.99;100713.19;7398484;19;20544;-67
2022/10/16 02:54:43;;;;;;;2.10;1.50;;;;;;;13.69;91.18;100714.22;7399222;19;20086;-67
2022/10/16 02:57:12;;;;;;;1.70;1.40;;;;;;;13.67;91.33;100722.19;7398855;19;20071;-68
2022/10/16 02:59:40;;;;;;;2.65;1.70;;;;;;;13.63;91.40;100712.66;7396761;19;20033;-68
2022/10/16 03:02:11;;;;;;;4.75;1.98;;;;;;;13.61;91.55;100718.88;7398776;19;20549;-68
2022/10/16 03:04:40;;;;;;;1.95;1.63;;;;;;;13.56;91.39;100726.97;7397287;19;20074;-68
2022/10/16 03:07:09;;;;;;;2.15;1.90;;;;;;;13.54;91.78;100727.94;7398479;19;20086;-68
2022/10/16 03:09:37;;;;;;;2.00;1.60;;;;;;;13.50;91.72;100732.44;7396543;19;20019;-68
2022/10/16 03:12:06;;;;;;;2.97;1.90;;;;;;;13.46;91.84;100731.69;7398812;19;20027;-68
2022/10/16 03:14:35;;;;;;;3.42;1.88;;;;;;;13.43;92.04;100734.41;7398737;19;20019;-68
2022/10/16 03:17:03;;;;;;;3.20;1.70;;;;;;;13.41;92.21;100732.75;7396177;19;20099;-69
2022/10/16 03:19:34;;;;;;;6.55;4.45;;;;;;;13.39;92.29;100734.59;7398014;19;20421;-68
2022/10/16 03:22:03;;;;;;;2.40;1.88;;;;;;;13.34;92.44;100738.22;7398855;19;20014;-69
2022/10/16 03:24:31;;;;;;;2.58;1.92;;;;;;;13.31;92.56;100746.19;7397932;19;20509;-69
2022/10/16 03:27:00;;;;;;;2.35;1.75;;;;;;;13.30;92.65;100754.16;7398308;19;20032;-67
2022/10/16 03:29:29;;;;;;;1.75;1.65;;;;;;;13.28;92.76;100748.06;7397454;19;20551;-69
2022/10/16 03:31:57;;;;;;;3.42;1.90;;;;;;;13.26;92.91;100758.66;7396164;19;20025;-68
2022/10/16 03:34:26;;;;;;;1.95;1.75;;;;;;;13.25;92.85;100759.56;7397697;19;20418;-67
2022/10/16 03:36:57;;;;;;;1.95;1.83;;;;;;;13.25;93.09;100767.47;7397982;19;20078;-67
2022/10/16 03:39:26;;;;;;;2.45;1.60;;;;;;;13.24;93.33;100768.38;7398090;19;20098;-68
2022/10/16 03:41:55;;;;;;;2.47;2.00;;;;;;;13.24;93.48;100767.53;7397709;19;20014;-68
2022/10/16 03:44:24;;;;;;;1.88;1.50;;;;;;;13.26;93.45;100771.00;7395415;19;20092;-68
2022/10/16 03:46:52;;;;;;;2.47;1.98;;;;;;;13.24;93.66;100767.53;7395866;19;20086;-69
2022/10/16 03:49:20;;;;;;;4.60;2.13;;;;;;;13.26;93.29;100773.63;7397720;19;20066;-67
2022/10/16 03:51:49;;;;;;;3.85;1.92;;;;;;;13.25;94.00;100780.66;7395526;19;20019;-68
2022/10/16 03:54:21;;;;;;;2.88;2.17;;;;;;;13.26;93.85;100773.63;7397165;19;20509;-68
2022/10/16 03:56:50;;;;;;;2.92;1.98;;;;;;;13.27;93.76;100773.56;7397421;19;20095;-67
2022/10/16 03:59:19;;;;;;;2.65;2.15;;;;;;;13.26;93.82;100766.56;7397396;19;20082;-67
2022/10/16 04:01:47;;;;;;;2.38;1.98;;;;;;;13.29;94.02;100776.16;7395233;19;20091;-68
2022/10/16 04:04:16;;;;;;;3.00;1.70;;;;;;;13.29;94.00;100779.63;7395026;19;20082;-67
2022/10/16 04:06:44;;;;;;;5.32;2.40;;;;;;;13.31;94.10;100777.81;7397112;19;20091;-68
2022/10/16 04:09:12;;;;;;;3.47;1.67;;;;;;;13.33;94.10;100794.44;7396683;19;20078;-68
2022/10/16 04:11:44;;;;;;;3.30;2.47;;;;;;;13.34;94.41;100779.50;7394898;19;20161;-69
2022/10/16 04:14:12;;;;;;;5.55;1.80;;;;;;;13.34;94.19;100772.47;7396450;19;20077;-68
2022/10/16 04:16:40;;;;;;;3.28;2.08;;;;;;;13.38;94.00;100770.59;7396730;19;20036;-67
2022/10/16 04:19:09;;;;;;;2.78;1.75;;;;;;;13.39;94.15;100763.56;7396123;19;20409;-68
2022/10/16 04:21:37;;;;;;;2.17;1.80;;;;;;;13.39;94.04;100756.53;7394649;19;20078;-68
2022/10/16 04:24:06;;;;;;;2.13;1.92;;;;;;;13.40;94.10;100758.25;7396124;19;20508;-67
2022/10/16 04:26:35;;;;;;;2.00;1.85;;;;;;;13.42;94.11;100760.81;7396147;19;20031;-67
2022/10/16 04:29:06;;;;;;;2.20;2.00;;;;;;;13.42;93.92;100760.81;7395919;19;20425;-67
2022/10/16 04:31:35;;;;;;;4.95;2.22;;;;;;;13.41;94.42;100761.72;7394450;19;20127;-68
2022/10/16 04:34:03;;;;;;;3.45;2.25;;;;;;;13.41;94.07;100761.72;7395762;19;20532;-67
2022/10/16 04:36:32;;;;;;;1.70;1.60;;;;;;;13.41;94.25;100769.63;7395696;19;20018;-69
2022/10/16 04:39:01;;;;;;;2.92;1.80;;;;;;;13.40;94.23;100778.47;7392842;19;20082;-68
2022/10/16 04:41:29;;;;;;;3.03;1.67;;;;;;;13.38;94.48;100775.88;7393951;19;20096;-69
2022/10/16 04:43:58;;;;;;;3.03;1.98;;;;;;;13.38;94.49;100773.22;7394199;19;20018;-67
2022/10/16 04:46:29;;;;;;;3.97;1.92;;;;;;;13.38;94.35;100775.88;7395409;19;20078;-69
2022/10/16 04:48:57;;;;;;;2.33;1.83;;;;;;;13.36;94.60;100773.25;7396156;19;20070;-69
2022/10/16 04:51:27;;;;;;;2.10;1.90;;;;;;;13.38;94.37;100775.03;7394012;19;20023;-68
2022/10/16 04:53:56;;;;;;;2.95;2.47;;;;;;;13.36;94.48;100769.78;7395269;19;20036;-69
2022/10/16 04:56:24;;;;;;;7.90;2.17;;;;;;;13.38;94.67;100775.03;7393866;19;20082;-68
2022/10/16 04:58:52;;;;;;;2.92;1.98;;;;;;;13.37;94.55;100784.72;7395128;19;20014;-69
2022/10/16 05:01:21;;;;;;;4.22;2.00;;;;;;;13.36;94.73;100791.72;7393896;19;20081;-68
2022/10/16 05:03:52;;;;;;;3.78;2.22;;;;;;;13.35;94.68;100786.50;7395362;19;20446;-69
2022/10/16 05:06:20;;;;;;;2.70;1.50;;;;;;;13.35;94.80;100794.41;7393253;19;20481;-67
2022/10/16 05:08:49;;;;;;;3.85;2.00;;;;;;;13.34;94.85;100796.19;7395326;19;20082;-68
2022/10/16 05:11:17;;;;;;;1.52;1.42;;;;;;;13.33;94.63;100797.09;7392633;19;20082;-68
2022/10/16 05:13:46;;;;;;;3.22;1.67;;;;;;;13.32;94.99;100790.09;7395128;19;20093;-68
2022/10/16 05:16:14;;;;;;;2.80;1.65;;;;;;;13.32;94.90;100787.47;7394873;19;20082;-68
2022/10/16 05:18:43;;;;;;;4.13;1.90;;;;;;;13.32;94.80;100802.38;7394487;19;20500;-69
2022/10/16 05:21:14;;;;;;;4.70;2.65;;;;;;;13.32;94.83;100802.38;7393053;19;20074;-69
2022/10/16 05:23:42;;;;;;;4.95;2.42;;;;;;;13.31;94.91;100798.06;7394616;19;20418;-68
2022/10/16 05:26:11;;;;;;;3.60;2.20;;;;;;;13.30;94.78;100801.59;7394270;19;20488;-67
2022/10/16 05:28:40;;;;;;;2.33;2.08;;;;;;;13.27;94.80;100792.00;7394850;19;20035;-67
2022/10/16 05:31:09;;;;;;;2.83;2.03;;;;;;;13.27;95.13;100799.03;7393206;19;20078;-67
2022/10/16 05:33:38;;;;;;;3.50;2.30;;;;;;;13.25;94.95;100814.06;7394326;19;20011;-68
2022/10/16 05:36:08;;;;;;;2.72;2.47;;;;;;;13.24;94.72;100815.81;7394696;19;20379;-67
2022/10/16 05:38:40;;;;;;;3.72;2.50;;;;;;;13.23;94.91;100807.97;7392652;19;20088;-68
2022/10/16 05:41:09;;;;;;;7.70;4.40;;;;;;;13.23;94.93;100818.50;7392710;19;20506;-68
2022/10/16 05:43:50;;;;;;;6.63;4.13;;;;;;;13.21;95.01;100831.72;7392741;19;20091;-68
2022/10/16 05:46:19;;;;;;;4.15;2.83;;;;;;;13.22;95.12;100833.47;7394755;19;20026;-68
2022/10/16 05:48:48;;;;;;;2.95;2.28;;;;;;;13.20;95.18;100836.16;7392383;19;20023;-67
2022/10/16 05:51:17;;;;;;;12.65;7.85;;;;;;;13.22;95.15;100828.19;7394607;19;20031;-68
2022/10/16 05:53:48;;;;;;;6.32;4.93;;;;;;;13.23;95.15;100829.91;7401570;19;20022;-68
2022/10/16 05:56:17;;;;;;;2.80;2.28;;;;;;;13.23;95.49;100826.41;7404932;19;20018;-68
2022/10/16 05:58:46;;;;;;;6.57;4.75;;;;;;;13.23;95.54;100819.38;7403199;19;20513;-67
2022/10/16 06:01:17;;;;;;;6.15;3.88;;;;;;;13.23;95.54;100814.09;7400714;19;20041;-68
2022/10/16 06:03:46;;;;;;;3.30;3.00;;;;;;;13.25;95.50;100808.78;7403202;19;20498;-68
2022/10/16 06:06:16;;;;;;;3.28;2.97;;;;;;;13.26;95.60;100805.25;7403450;19;20035;-67
2022/10/16 06:08:48;;;;;;;5.72;3.80;;;;;;;13.27;95.63;100813.09;7400912;19;20102;-68
2022/10/16 06:11:18;;;;;;;2.83;2.53;;;;;;;13.29;95.86;100813.03;7399704;19;20077;-68
2022/10/16 06:13:47;;;;;;;2.60;2.40;;;;;;;13.30;95.77;100818.25;7400679;19;20411;-68
2022/10/16 06:16:15;;;;;;;2.67;2.00;;;;;;;13.32;95.97;100815.56;7403211;19;20074;-67
2022/10/16 06:18:44;;;;;;;2.10;1.90;;;;;;;13.34;95.95;100814.63;7400011;19;20078;-67
2022/10/16 06:21:14;;;;;;;1.67;1.58;;;;;;;13.38;96.34;100822.44;7401392;19;20023;-67
2022/10/16 06:23:42;;;;;;;2.33;1.77;;;;;;;13.42;96.60;100821.44;7403056;19;20018;-67
2022/10/16 06:26:16;;;;;;;1.95;1.73;;;;;;;13.46;96.19;100826.56;7402786;19;20078;-67
2022/10/16 06:28:44;;;;;;;2.03;1.63;;;;;;;13.50;96.58;100824.69;7402811;19;20089;-67
2022/10/16 06:31:14;;;;;;;2.22;2.00;;;;;;;13.58;96.70;100842.91;7400687;19;20074;-68
2022/10/16 06:33:45;;;;;;;2.63;1.50;;;;;;;13.62;97.26;100850.66;7402937;19;20014;-68
2022/10/16 06:36:15;;;;;;;2.05;1.40;;;;;;;13.69;97.06;100853.94;7401130;19;20082;-67
2022/10/16 06:38:44;;;;;;;1.65;1.55;;;;;;;13.74;96.76;100859.94;7402051;19;20027;-67
2022/10/16 06:41:17;;;;;;;3.72;1.77;;;;;;;13.80;96.92;100872.91;7399166;19;20090;-67
2022/10/16 06:43:46;;;;;;;2.30;1.20;;;;;;;13.88;96.87;100877.09;7401036;19;20023;-67
2022/10/16 06:46:17;;;;;;;1.67;1.42;;;;;;;13.92;96.85;100876.06;7400465;19;20444;-67
2022/10/16 06:48:45;;;;;;;3.70;1.48;;;;;;;13.98;96.77;100870.56;7400462;19;20018;-67
2022/10/16 06:51:16;;;;;;;1.98;1.70;;;;;;;14.02;96.37;100872.19;7398029;19;20074;-67
2022/10/16 06:53:47;;;;;;;2.70;1.38;;;;;;;14.06;96.34;100871.16;7401670;19;20035;-68
2022/10/16 06:56:19;;;;;;;1.98;1.70;;;;;;;14.10;96.28;100866.66;7401898;19;20011;-67
2022/10/16 06:58:48;;;;;;;2.95;1.70;;;;;;;14.12;96.29;100872.75;7402491;19;20018;-67
2022/10/16 07:01:18;;;;;;;4.50;1.92;;;;;;;14.14;95.99;100879.69;7399333;19;20078;-67
2022/10/16 07:03:48;;;;;;;3.65;2.45;;;;;;;14.16;96.00;100877.84;7401827;19;20022;-68
2022/10/16 07:06:18;;;;;;;6.05;1.73;;;;;;;14.18;95.99;100891.00;7400976;19;20085;-67
2022/10/16 07:08:48;;;;;;;3.13;1.50;;;;;;;14.19;96.15;100903.25;7401407;19;20019;-67
2022/10/16 07:11:21;;;;;;;4.35;2.22;;;;;;;14.21;95.71;100911.16;7398239;19;20032;-67
2022/10/16 07:13:51;;;;;;;3.53;1.63;;;;;;;14.23;95.61;100917.22;7400388;19;20074;-67
2022/10/16 07:16:21;;;;;;;5.82;3.42;;;;;;;14.24;95.49;100911.91;7400157;19;20468;-68
2022/10/16 07:18:51;;;;;;;2.30;2.10;;;;;;;14.26;95.75;100901.28;7399678;19;20165;-67
2022/10/16 07:21:22;;;;;;;3.47;1.70;;;;;;;14.32;95.58;100909.00;7397050;19;20380;-67
2022/10/16 07:23:53;;;;;;;2.60;1.50;;;;;;;14.38;95.33;100903.50;7400522;19;20014;-67
2022/10/16 07:26:24;;;;;;;4.57;2.10;;;;;;;14.44;95.33;100899.78;7400645;19;20029;-67
2022/10/16 07:28:53;;;;;;;2.80;1.90;;;;;;;14.52;95.28;100907.41;7400303;19;20375;-67
2022/10/16 07:31:23;;;;;;;3.53;2.30;;;;;;;14.60;94.96;100908.03;7398395;19;20081;-68
2022/10/16 07:33:52;;;;;;;3.92;1.90;;;;;;;14.70;94.86;100901.53;7397976;19;20033;-68
2022/10/16 07:36:21;;;;;;;3.38;2.03;;;;;;;14.78;94.22;100902.09;7399089;19;20484;-67
2022/10/16 07:38:50;;;;;;;4.05;1.55;;;;;;;14.88;94.05;100915.81;7399312;19;20073;-67
2022/10/16 07:41:20;;;;;;;2.58;1.40;;;;;;;14.96;93.34;100915.53;7397094;19;20011;-67
2022/10/16 07:43:54;;;;;;;4.30;1.40;;;;;;;15.03;93.02;100902.97;7396575;19;20027;-68
2022/10/16 07:46:24;;;;;;;2.40;1.25;;;;;;;15.10;92.89;100907.97;7398596;19;20037;-66
2022/10/16 07:48:53;;;;;;;6.95;3.45;;;;;;;15.18;92.29;100912.94;7399800;19;20019;-67
2022/10/16 07:51:23;;;;;;;1.80;1.60;;;;;;;15.25;91.99;100921.50;7397249;19;20078;-67
2022/10/16 07:53:52;;;;;;;6.10;1.60;;;;;;;15.32;91.63;100929.13;7397368;19;20044;-68
2022/10/16 07:56:22;;;;;;;1.60;1.50;;;;;;;15.40;91.03;100930.63;7398722;19;20022;-67
2022/10/16 07:58:56;;;;;;;1.85;1.10;;;;;;;15.46;90.54;100938.31;7399412;19;20078;-68
2022/10/16 08:01:24;;;;;;;1.63;1.53;;;;;;;15.54;90.36;100949.44;7397287;19;20018;-66
2022/10/16 08:03:54;;;;;;;1.38;1.10;;;;;;;15.59;89.95;100950.13;7399720;19;20853;-68
2022/10/16 08:06:24;;;;;;;1.27;0.95;;;;;;;15.63;89.50;100942.91;7396705;19;20061;-68
2022/10/16 08:08:53;;;;;;;1.85;1.10;;;;;;;15.66;89.85;100940.19;7399220;19;20035;-67
2022/10/16 08:11:23;;;;;;;1.25;1.15;;;;;;;15.72;89.23;100942.56;7396555;19;20041;-68
2022/10/16 08:13:54;;;;;;;1.92;0.90;;;;;;;15.77;89.06;100942.38;7396406;19;20375;-67
2022/10/16 08:16:23;;;;;;;1.70;1.30;;;;;;;15.85;88.63;100955.34;7398874;19;20023;-68
2022/10/16 08:18:51;;;;;;;3.78;2.05;;;;;;;15.90;88.18;100963.97;7396712;19;20014;-68
2022/10/16 08:21:22;;;;;;;2.95;0.80;;;;;;;15.93;87.67;100959.38;7396322;19;20410;-67
2022/10/16 08:23:51;;;;;;;2.25;0.70;;;;;;;15.99;87.91;100979.44;7396790;19;20026;-68
2022/10/16 08:26:19;;;;;;;2.85;0.95;;;;;;;16.05;87.34;100967.75;7396239;19;20078;-67
2022/10/16 08:28:48;;;;;;;1.45;1.00;;;;;;;16.08;86.90;100964.97;7398442;19;20022;-67
2022/10/16 08:31:19;;;;;;;1.23;1.13;;;;;;;16.18;86.89;100968.13;7396063;19;20085;-69
2022/10/16 08:33:48;;;;;;;3.10;1.20;;;;;;;16.26;86.27;100973.94;7397378;19;20011;-67
2022/10/16 08:36:18;;;;;;;4.15;1.23;;;;;;;16.33;86.09;100972.75;7397303;19;20022;-68
2022/10/16 08:38:50;;;;;;;1.38;1.20;;;;;;;16.42;85.44;100971.50;7395452;19;20011;-67
2022/10/16 08:41:32;;;;;;;2.00;0.90;;;;;;;16.46;84.47;100967.78;7396128;19;20022;-68
2022/10/16 08:44:31;;;;;;;1.15;0.90;;;;;;;16.52;83.14;100979.94;7396964;19;20094;-67
2022/10/16 08:47:08;;;;;;;1.52;0.95;;;;;;;16.55;83.50;100982.44;7397291;19;20480;-67
2022/10/16 08:49:36;;;;;;;1.17;0.90;;;;;;;16.59;83.58;101002.56;7397800;19;20090;-68
2022/10/16 08:52:08;;;;;;;1.25;1.00;;;;;;;16.61;83.34;100992.75;7396852;19;20018;-68
2022/10/16 08:54:41;;;;;;;1.58;0.90;;;;;;;16.64;82.98;100994.41;7395068;19;20070;-68
2022/10/16 08:57:14;;;;;;;0.85;0.70;;;;;;;16.67;82.26;100996.91;7395597;19;20023;-67
2022/10/16 08:59:43;;;;;;;4.75;0.93;;;;;;;16.70;82.01;100981.75;7394152;19;20031;-68
2022/10/16 09:02:27;;;;;;;1.13;0.80;;;;;;;16.74;81.30;100983.38;7393558;19;20014;-68
2022/10/16 09:05:25;;;;;;;2.33;1.08;;;;;;;16.78;79.37;100984.94;7394305;19;20027;-69
2022/10/16 09:08:04;;;;;;;2.20;1.08;;;;;;;16.80;78.92;101006.06;7396001;19;20010;-68
2022/10/16 09:10:46;;;;;;;1.05;0.57;;;;;;;16.85;79.21;101016.47;7393711;19;20031;-68
2022/10/16 09:13:23;;;;;;;2.08;0.82;;;;;;;16.89;79.16;101020.72;7393822;19;20035;-66
2022/10/16 09:15:58;;;;;;;1.25;0.60;;;;;;;16.91;78.42;101018.91;7393700;19;20383;-67
2022/10/16 09:18:36;;;;;;;1.13;0.60;;;;;;;16.94;78.53;101013.44;7395192;19;20019;-68
2022/10/16 09:21:15;;;;;;;2.38;0.90;;;;;;;17.00;78.90;101020.28;7393389;19;20505;-69
2022/10/16 09:23:43;;;;;;;1.85;1.00;;;;;;;17.04;78.90;101017.41;7395258;19;20049;-66
2022/10/16 09:26:14;;;;;;;2.65;0.73;;;;;;;17.09;78.76;101012.75;7401074;19;20097;-70
2022/10/16 09:28:43;;;;;;;0.95;0.73;;;;;;;17.12;78.59;101013.56;7400146;19;20011;-70
2022/10/16 09:31:18;;;;;;;1.33;0.85;;;;;;;17.17;77.78;101022.16;7400338;19;20097;-71
2022/10/16 09:33:52;;;;;;;0.75;0.65;;;;;;;17.20;77.77;101032.63;7399860;19;20078;-68
2022/10/16 09:36:23;;;;;;;2.03;0.68;;;;;;;17.22;77.75;101020.16;7403086;19;20086;-69
2022/10/16 09:38:53;;;;;;;0.90;0.63;;;;;;;17.26;77.56;101027.03;7401440;19;20074;-69
2022/10/16 09:41:25;;;;;;;2.55;0.68;;;;;;;17.30;77.46;101027.75;7400989;19;20019;-67
2022/10/16 09:43:58;;;;;;;1.60;0.70;;;;;;;17.35;77.10;101024.00;7401753;19;20074;-71
2022/10/16 09:46:32;;;;;;;2.10;0.80;;;;;;;17.39;75.58;101030.03;7401967;19;20035;-72
2022/10/16 09:49:08;;;;;;;0.80;0.60;;;;;;;17.42;76.34;101038.66;7402628;19;20035;-71
2022/10/16 09:51:39;;;;;;;2.63;1.00;;;;;;;17.51;76.86;101033.88;7398989;19;20372;-69
2022/10/16 09:54:17;;;;;;;3.20;1.60;;;;;;;17.57;76.05;101031.81;7402207;19;20010;-69
2022/10/16 09:56:49;;;;;;;1.88;0.73;;;;;;;17.63;76.01;101035.09;7399495;19;20019;-69
2022/10/16 09:59:19;;;;;;;1.70;0.70;;;;;;;17.67;75.90;101036.69;7399744;19;20015;-69
2022/10/16 10:01:50;;;;;;;0.90;0.65;;;;;;;17.68;75.45;101044.59;7400641;19;20006;-68
2022/10/16 10:04:47;;;;;;;11.00;0.90;;;;;;;17.72;75.78;101037.34;7401764;19;20484;-69
2022/10/16 10:07:28;;;;;;;3.38;0.88;;;;;;;17.78;75.17;101044.13;7401930;19;20010;-69
2022/10/16 10:09:59;;;;;;;2.20;0.80;;;;;;;17.82;75.70;101051.00;7402669;19;20025;-68
2022/10/16 10:12:30;;;;;;;1.75;0.65;;;;;;;17.86;75.12;101064.06;7400990;19;20027;-67
2022/10/16 10:15:00;;;;;;;1.67;0.75;;;;;;;17.90;75.24;101063.00;7402522;19;20011;-67
2022/10/16 10:17:31;;;;;;;2.13;0.90;;;;;;;17.96;73.99;101050.38;7405547;19;20023;-69
2022/10/16 10:20:14;;;;;;;1.02;0.60;;;;;;;18.00;74.00;101054.63;7403275;19;20052;-68
2022/10/16 10:22:45;;;;;;;1.52;0.70;;;;;;;18.05;73.54;101058.78;7400606;19;20010;-68
2022/10/16 10:25:35;;;;;;;1.15;0.70;;;;;;;18.09;70.79;101058.66;7399567;19;20066;-68
2022/10/16 10:28:27;;;;;;;2.45;0.70;;;;;;;18.13;71.86;101063.72;7398078;19;20438;-70
2022/10/16 10:31:03;;;;;;;2.45;0.60;;;;;;;18.15;70.70;101058.34;7398605;19;20481;-69
2022/10/16 10:33:41;;;;;;;1.48;0.68;;;;;;;18.18;70.65;101058.19;7399531;19;20035;-70
2022/10/16 10:36:22;;;;;;;2.17;0.50;;;;;;;18.21;69.56;101063.34;7396617;19;20505;-67
2022/10/16 10:38:56;;;;;;;2.47;0.60;;;;;;;18.26;70.44;101071.09;7400040;19;20023;-70
2022/10/16 10:41:54;;;;;;;0.80;0.63;;;;;;;18.30;68.59;101070.88;7398170;19;20033;-70
2022/10/16 10:44:55;;;;;;;1.73;0.55;;;;;;;18.37;68.19;101077.63;7397173;19;20055;-70
2022/10/16 10:47:38;;;;;;;2.92;1.38;;;;;;;18.45;69.17;101079.88;7397356;19;20555;-69
2022/10/16 10:50:14;;;;;;;1.63;0.70;;;;;;;18.52;67.42;101073.31;7397955;19;20070;-69
2022/10/16 10:53:00;;;;;;;1.33;0.50;;;;;;;18.58;67.77;101085.44;7398370;19;20091;-69
2022/10/16 10:55:39;;;;;;;0.98;0.80;;;;;;;18.62;66.99;101075.53;7397512;19;20022;-69
2022/10/16 10:58:31;;;;;;;3.20;0.60;;;;;;;18.64;66.71;101081.59;7397361;19;20430;-69
2022/10/16 11:01:06;;;;;;;0.75;0.60;;;;;;;18.67;66.52;101084.97;7397727;19;20026;-67
2022/10/16 11:03:49;;;;;;;0.50;0.50;;;;;;;18.70;64.81;101079.53;7398444;19;20083;-67
2022/10/16 11:06:24;;;;;;;0.82;0.40;;;;;;;18.72;65.58;101077.63;7396314;19;20018;-68
2022/10/16 11:08:59;;;;;;;1.88;0.73;;;;;;;18.76;64.76;101086.31;7396200;19;20010;-68
2022/10/16 11:11:34;;;;;;;1.42;0.70;;;;;;;18.78;64.48;101087.09;7396455;19;20026;-67
2022/10/16 11:14:08;;;;;;;1.23;0.40;;;;;;;18.75;64.02;101091.72;7396118;19;20074;-66
2022/10/16 11:16:41;;;;;;;2.05;0.50;;;;;;;18.75;64.36;101087.25;7398741;19;20078;-65
2022/10/16 11:19:17;;;;;;;1.27;0.68;;;;;;;18.75;63.88;101095.22;7398897;19;20029;-67
2022/10/16 11:21:52;;;;;;;2.15;0.70;;;;;;;18.77;63.61;101087.19;7396559;19;20089;-67
2022/10/16 11:24:32;;;;;;;1.52;0.70;;;;;;;18.80;63.32;101092.34;7398029;19;20023;-69
2022/10/16 11:27:06;;;;;;;1.48;0.50;;;;;;;18.81;63.24;101094.06;7397851;19;20070;-67
2022/10/16 11:29:37;;;;;;;2.92;0.50;;;;;;;18.82;63.37;101096.63;7397616;19;20074;-68
2022/10/16 11:32:18;;;;;;;0.95;0.80;;;;;;;18.83;63.16;101097.47;7398022;19;20027;-68
2022/10/16 11:34:52;;;;;;;0.85;0.68;;;;;;;18.80;63.27;101097.66;7398049;19;20014;-70
2022/10/16 11:37:22;;;;;;;;;;;;;;;18.77;62.34;101095.16;7398862;19;20079;-68
2022/10/16 11:39:57;;;;;;;0.50;0.40;;;;;;;18.76;63.72;101096.09;7396745;19;19927;-69
2022/10/16 11:42:33;;;;;;;1.00;0.60;;;;;;;18.75;63.07;101092.56;7398162;19;20024;-68
2022/10/16 11:45:10;;;;;;;2.13;0.50;;;;;;;18.76;63.63;101093.44;7395770;19;20010;-70
2022/10/16 11:47:46;;;;;;;2.30;0.85;;;;;;;18.77;62.98;101092.50;7397087;19;20015;-70
2022/10/16 11:50:25;;;;;;;1.90;0.50;;;;;;;18.78;62.24;101091.53;7395946;19;20023;-68